sensor_id;sensor_type;location;lat;lon;timestamp;pressure;altitude;pressure_sealevel;temperature;humidity
35519;BME280;21627;48.216;16.482;2022-11-20T00:01:31;99508.34;;;0.50;100.00
35519;BME280;21627;48.216;16.482;2022-11-20T00:03:59;99486.81;;;0.40;100.00
35519;BME280;21627;48.216;16.482;2022-11-20T00:06:27;99477.69;;;0.46;100.00
35519;BME280;21627;48.216;16.482;2022-11-20T00:08:59;99484.56;;;0.48;100.00
35519;BME280;21627;48.216;16.482;2022-11-20T00:11:29;99479.34;;;0.45;100.00
35519;BME280;21627;48.216;16.482;2022-11-20T00:14:00;99477.19;;;0.56;100.00
35519;BME280;21627;48.216;16.482;2022-11-20T00:16:30;99467.81;;;0.55;100.00
35519;BME280;21627;48.216;16.482;2022-11-20T00:18:57;99460.00;;;0.50;100.00
35519;BME280;21627;48.216;16.482;2022-11-20T00:21:44;99467.16;;;0.60;100.00
35519;BME280;21627;48.216;16.482;2022-11-20T00:24:12;99471.22;;;0.55;100.00
35519;BME280;21627;48.216;16.482;2022-11-20T00:26:39;99485.69;;;0.56;100.00
35519;BME280;21627;48.216;16.482;2022-11-20T00:29:08;99472.53;;;0.44;100.00
35519;BME280;21627;48.216;16.482;2022-11-20T00:31:36;99482.97;;;0.52;100.00
35519;BME280;21627;48.216;16.482;2022-11-20T00:34:03;99481.34;;;0.54;100.00
35519;BME280;21627;48.216;16.482;2022-11-20T00:36:33;99465.06;;;0.49;100.00
35519;BME280;21627;48.216;16.482;2022-11-20T00:39:00;99489.91;;;0.56;100.00
35519;BME280;21627;48.216;16.482;2022-11-20T00:41:29;99473.38;;;0.45;100.00
35519;BME280;21627;48.216;16.482;2022-11-20T00:43:57;99476.00;;;0.46;100.00
35519;BME280;21627;48.216;16.482;2022-11-20T00:46:26;99478.38;;;0.41;100.00
35519;BME280;21627;48.216;16.482;2022-11-20T00:48:54;99505.03;;;0.53;100.00
35519;BME280;21627;48.216;16.482;2022-11-20T00:51:24;99522.09;;;0.55;100.00
35519;BME280;21627;48.216;16.482;2022-11-20T00:53:51;99515.13;;;0.50;100.00
35519;BME280;21627;48.216;16.482;2022-11-20T00:56:19;99515.97;;;0.50;100.00
35519;BME280;21627;48.216;16.482;2022-11-20T00:58:48;99521.97;;;0.51;100.00
35519;BME280;21627;48.216;16.482;2022-11-20T01:01:22;99517.66;;;0.50;100.00
35519;BME280;21627;48.216;16.482;2022-11-20T01:03:54;99515.84;;;0.46;100.00
35519;BME280;21627;48.216;16.482;2022-11-20T01:06:36;99535.63;;;0.54;100.00
35519;BME280;21627;48.216;16.482;2022-11-20T01:09:12;99530.47;;;0.53;100.00
35519;BME280;21627;48.216;16.482;2022-11-20T01:11:42;99534.78;;;0.54;100.00
35519;BME280;21627;48.216;16.482;2022-11-20T01:14:15;99524.22;;;0.43;100.00
35519;BME280;21627;48.216;16.482;2022-11-20T01:16:47;99519.28;;;0.48;100.00
35519;BME280;21627;48.216;16.482;2022-11-20T01:19:19;99527.66;;;0.45;100.00
35519;BME280;21627;48.216;16.482;2022-11-20T01:21:53;99532.06;;;0.49;100.00
35519;BME280;21627;48.216;16.482;2022-11-20T01:24:22;99541.41;;;0.50;100.00
35519;BME280;21627;48.216;16.482;2022-11-20T01:26:51;99539.78;;;0.52;100.00
35519;BME280;21627;48.216;16.482;2022-11-20T01:29:24;99522.47;;;0.42;100.00
35519;BME280;21627;48.216;16.482;2022-11-20T01:31:52;99548.28;;;0.53;100.00
35519;BME280;21627;48.216;16.482;2022-11-20T01:34:21;99541.41;;;0.50;100.00
35519;BME280;21627;48.216;16.482;2022-11-20T01:36:50;99515.69;;;0.42;100.00
35519;BME280;21627;48.216;16.482;2022-11-20T01:39:21;99523.31;;;0.42;100.00
35519;BME280;21627;48.216;16.482;2022-11-20T01:41:50;99533.75;;;0.49;100.00
35519;BME280;21627;48.216;16.482;2022-11-20T01:44:58;99525.25;;;0.48;100.00
35519;BME280;21627;48.216;16.482;2022-11-20T01:47:40;99506.34;;;0.41;100.00
35519;BME280;21627;48.216;16.482;2022-11-20T01:50:26;99511.59;;;0.46;100.00
35519;BME280;21627;48.216;16.482;2022-11-20T01:53:10;99503.88;;;0.43;100.00
35519;BME280;21627;48.216;16.482;2022-11-20T01:55:45;99515.94;;;0.49;100.00
35519;BME280;21627;48.216;16.482;2022-11-20T01:58:16;99502.97;;;0.42;100.00
35519;BME280;21627;48.216;16.482;2022-11-20T02:00:46;99516.13;;;0.53;100.00
35519;BME280;21627;48.216;16.482;2022-11-20T02:03:17;99518.69;;;0.55;100.00
35519;BME280;21627;48.216;16.482;2022-11-20T02:06:12;99516.16;;;0.55;100.00
35519;BME280;21627;48.216;16.482;2022-11-20T02:08:41;99528.19;;;0.59;100.00
35519;BME280;21627;48.216;16.482;2022-11-20T02:11:08;99526.38;;;0.56;100.00
35519;BME280;21627;48.216;16.482;2022-11-20T02:13:36;99534.81;;;0.55;100.00
35519;BME280;21627;48.216;16.482;2022-11-20T02:18:53;99529.63;;;0.52;100.00
35519;BME280;21627;48.216;16.482;2022-11-20T02:21:33;99524.53;;;0.52;100.00
35519;BME280;21627;48.216;16.482;2022-11-20T02:27:10;99530.66;;;0.57;100.00
35519;BME280;21627;48.216;16.482;2022-11-20T02:30:05;99533.16;;;0.56;100.00
35519;BME280;21627;48.216;16.482;2022-11-20T02:32:38;99534.03;;;0.56;100.00
35519;BME280;21627;48.216;16.482;2022-11-20T02:35:35;99524.78;;;0.58;100.00
35519;BME280;21627;48.216;16.482;2022-11-20T02:37:59;99525.47;;;0.54;100.00
35519;BME280;21627;48.216;16.482;2022-11-20T02:40:31;99538.25;;;0.56;100.00
35519;BME280;21627;48.216;16.482;2022-11-20T02:42:58;99537.44;;;0.57;100.00
35519;BME280;21627;48.216;16.482;2022-11-20T02:45:25;99521.06;;;0.50;100.00
35519;BME280;21627;48.216;16.482;2022-11-20T02:47:52;99516.81;;;0.49;100.00
35519;BME280;21627;48.216;16.482;2022-11-20T02:50:20;99514.44;;;0.54;100.00
35519;BME280;21627;48.216;16.482;2022-11-20T02:52:47;99494.88;;;0.53;100.00
35519;BME280;21627;48.216;16.482;2022-11-20T02:55:14;99501.75;;;0.55;100.00
35519;BME280;21627;48.216;16.482;2022-11-20T02:57:41;99503.53;;;0.58;100.00
35519;BME280;21627;48.216;16.482;2022-11-20T03:00:09;99505.38;;;0.62;100.00
35519;BME280;21627;48.216;16.482;2022-11-20T03:02:36;99511.47;;;0.66;100.00
35519;BME280;21627;48.216;16.482;2022-11-20T03:05:03;99499.44;;;0.61;100.00
35519;BME280;21627;48.216;16.482;2022-11-20T03:07:30;99503.00;;;0.67;100.00
35519;BME280;21627;48.216;16.482;2022-11-20T03:09:58;99485.78;;;0.59;100.00
35519;BME280;21627;48.216;16.482;2022-11-20T03:12:25;99478.84;;;0.55;100.00
35519;BME280;21627;48.216;16.482;2022-11-20T03:14:52;99472.09;;;0.56;100.00
35519;BME280;21627;48.216;16.482;2022-11-20T03:17:19;99484.22;;;0.63;100.00
35519;BME280;21627;48.216;16.482;2022-11-20T03:19:46;99475.78;;;0.64;100.00
35519;BME280;21627;48.216;16.482;2022-11-20T03:22:13;99470.53;;;0.59;100.00
35519;BME280;21627;48.216;16.482;2022-11-20T03:24:41;99461.19;;;0.58;100.00
35519;BME280;21627;48.216;16.482;2022-11-20T03:27:08;99462.06;;;0.60;100.00
35519;BME280;21627;48.216;16.482;2022-11-20T03:29:38;99472.47;;;0.67;100.00
35519;BME280;21627;48.216;16.482;2022-11-20T03:32:05;99469.88;;;0.65;100.00
35519;BME280;21627;48.216;16.482;2022-11-20T03:34:32;99461.94;;;0.56;100.00
35519;BME280;21627;48.216;16.482;2022-11-20T03:36:59;99481.78;;;0.66;100.00
35519;BME280;21627;48.216;16.482;2022-11-20T03:39:26;99461.97;;;0.57;100.00
35519;BME280;21627;48.216;16.482;2022-11-20T03:41:53;99473.25;;;0.64;100.00
35519;BME280;21627;48.216;16.482;2022-11-20T03:44:21;99471.72;;;0.69;100.00
35519;BME280;21627;48.216;16.482;2022-11-20T03:46:48;99475.03;;;0.67;100.00
35519;BME280;21627;48.216;16.482;2022-11-20T03:49:16;99464.69;;;0.62;100.00
35519;BME280;21627;48.216;16.482;2022-11-20T03:51:43;99473.25;;;0.64;100.00
35519;BME280;21627;48.216;16.482;2022-11-20T03:54:10;99479.13;;;0.63;100.00
35519;BME280;21627;48.216;16.482;2022-11-20T03:56:38;99478.31;;;0.64;100.00
35519;BME280;21627;48.216;16.482;2022-11-20T03:59:06;99480.69;;;0.59;100.00
35519;BME280;21627;48.216;16.482;2022-11-20T04:01:36;99463.66;;;0.57;100.00
35519;BME280;21627;48.216;16.482;2022-11-20T04:04:09;99472.03;;;0.54;100.00
35519;BME280;21627;48.216;16.482;2022-11-20T04:06:38;99460.91;;;0.51;100.00
35519;BME280;21627;48.216;16.482;2022-11-20T04:09:06;99440.31;;;0.45;100.00
35519;BME280;21627;48.216;16.482;2022-11-20T04:11:36;99437.75;;;0.43;100.00
35519;BME280;21627;48.216;16.482;2022-11-20T04:14:11;99452.34;;;0.49;100.00
35519;BME280;21627;48.216;16.482;2022-11-20T04:16:39;99457.38;;;0.47;100.00
35519;BME280;21627;48.216;16.482;2022-11-20T04:19:11;99453.09;;;0.46;100.00
35519;BME280;21627;48.216;16.482;2022-11-20T04:21:38;99428.09;;;0.34;100.00
35519;BME280;21627;48.216;16.482;2022-11-20T04:24:06;99441.25;;;0.47;100.00
35519;BME280;21627;48.216;16.482;2022-11-20T04:26:34;99434.28;;;0.41;100.00
35519;BME280;21627;48.216;16.482;2022-11-20T04:29:01;99437.00;;;0.46;100.00
35519;BME280;21627;48.216;16.482;2022-11-20T04:31:31;99442.88;;;0.45;100.00
35519;BME280;21627;48.216;16.482;2022-11-20T04:34:06;99422.97;;;0.33;100.00
35519;BME280;21627;48.216;16.482;2022-11-20T04:36:34;99428.19;;;0.37;100.00
35519;BME280;21627;48.216;16.482;2022-11-20T04:39:05;99417.13;;;0.35;100.00
35519;BME280;21627;48.216;16.482;2022-11-20T04:41:35;99413.69;;;0.35;100.00
35519;BME280;21627;48.216;16.482;2022-11-20T04:44:05;99407.72;;;0.33;100.00
35519;BME280;21627;48.216;16.482;2022-11-20T04:46:42;99408.78;;;0.39;100.00
35519;BME280;21627;48.216;16.482;2022-11-20T04:49:10;99406.97;;;0.35;100.00
35519;BME280;21627;48.216;16.482;2022-11-20T04:51:38;99408.59;;;0.33;100.00
35519;BME280;21627;48.216;16.482;2022-11-20T04:54:05;99386.97;;;0.22;100.00
35519;BME280;21627;48.216;16.482;2022-11-20T04:56:32;99405.88;;;0.29;100.00
35519;BME280;21627;48.216;16.482;2022-11-20T04:59:02;99403.22;;;0.26;100.00
35519;BME280;21627;48.216;16.482;2022-11-20T05:01:30;99386.88;;;0.19;100.00
35519;BME280;21627;48.216;16.482;2022-11-20T05:03:57;99394.50;;;0.19;100.00
35519;BME280;21627;48.216;16.482;2022-11-20T05:06:24;99403.06;;;0.21;100.00
35519;BME280;21627;48.216;16.482;2022-11-20T05:08:51;99406.38;;;0.20;100.00
35519;BME280;21627;48.216;16.482;2022-11-20T05:11:21;99408.94;;;0.20;100.00
35519;BME280;21627;48.216;16.482;2022-11-20T05:13:50;99394.22;;;0.11;100.00
35519;BME280;21627;48.216;16.482;2022-11-20T05:16:21;99405.50;;;0.18;100.00
35519;BME280;21627;48.216;16.482;2022-11-20T05:18:50;99390.84;;;0.11;100.00
35519;BME280;21627;48.216;16.482;2022-11-20T05:21:18;99394.22;;;0.11;100.00
35519;BME280;21627;48.216;16.482;2022-11-20T05:23:46;99409.69;;;0.17;100.00
35519;BME280;21627;48.216;16.482;2022-11-20T05:26:20;99410.50;;;0.16;100.00
35519;BME280;21627;48.216;16.482;2022-11-20T05:28:51;99423.41;;;0.21;100.00
35519;BME280;21627;48.216;16.482;2022-11-20T05:31:24;99407.88;;;0.13;100.00
35519;BME280;21627;48.216;16.482;2022-11-20T05:33:56;99412.88;;;0.12;100.00
35519;BME280;21627;48.216;16.482;2022-11-20T05:36:23;99430.84;;;0.16;100.00
35519;BME280;21627;48.216;16.482;2022-11-20T05:38:51;99432.53;;;0.16;100.00
35519;BME280;21627;48.216;16.482;2022-11-20T05:41:24;99422.13;;;0.10;100.00
35519;BME280;21627;48.216;16.482;2022-11-20T05:43:52;99423.59;;;0.03;100.00
35519;BME280;21627;48.216;16.482;2022-11-20T05:46:20;99429.00;;;0.12;100.00
35519;BME280;21627;48.216;16.482;2022-11-20T05:48:53;99423.03;;;0.10;100.00
35519;BME280;21627;48.216;16.482;2022-11-20T05:51:21;99435.75;;;0.12;100.00
35519;BME280;21627;48.216;16.482;2022-11-20T05:53:48;99444.38;;;0.15;100.00
35519;BME280;21627;48.216;16.482;2022-11-20T05:56:18;99429.66;;;0.07;100.00
35519;BME280;21627;48.216;16.482;2022-11-20T05:58:47;99437.44;;;0.11;100.00
35519;BME280;21627;48.216;16.482;2022-11-20T06:01:22;99443.50;;;0.15;100.00
35519;BME280;21627;48.216;16.482;2022-11-20T06:03:50;99422.09;;;0.08;100.00
35519;BME280;21627;48.216;16.482;2022-11-20T06:06:19;99441.28;;;0.24;100.00
35519;BME280;21627;48.216;16.482;2022-11-20T06:08:47;99420.34;;;0.07;100.00
35519;BME280;21627;48.216;16.482;2022-11-20T06:11:15;99438.47;;;0.16;100.00
35519;BME280;21627;48.216;16.482;2022-11-20T06:13:43;99453.66;;;0.15;100.00
35519;BME280;21627;48.216;16.482;2022-11-20T06:16:13;99464.72;;;0.15;100.00
35519;BME280;21627;48.216;16.482;2022-11-20T06:18:41;99452.78;;;0.13;100.00
35519;BME280;21627;48.216;16.482;2022-11-20T06:21:18;99426.03;;;0.00;100.00
35519;BME280;21627;48.216;16.482;2022-11-20T06:23:46;99455.19;;;0.10;100.00
35519;BME280;21627;48.216;16.482;2022-11-20T06:26:25;99463.63;;;0.09;100.00
35519;BME280;21627;48.216;16.482;2022-11-20T06:28:54;99457.59;;;0.07;100.00
35519;BME280;21627;48.216;16.482;2022-11-20T06:31:25;99459.22;;;0.05;100.00
35519;BME280;21627;48.216;16.482;2022-11-20T06:33:52;99447.97;;;-0.02;100.00
35519;BME280;21627;48.216;16.482;2022-11-20T06:36:22;99469.53;;;0.08;100.00
35519;BME280;21627;48.216;16.482;2022-11-20T06:38:49;99459.28;;;0.06;100.00
35519;BME280;21627;48.216;16.482;2022-11-20T06:41:21;99459.19;;;0.03;100.00
35519;BME280;21627;48.216;16.482;2022-11-20T06:43:49;99482.53;;;0.15;100.00
35519;BME280;21627;48.216;16.482;2022-11-20T06:46:19;99481.75;;;0.18;100.00
35519;BME280;21627;48.216;16.482;2022-11-20T06:48:47;99488.28;;;0.11;100.00
35519;BME280;21627;48.216;16.482;2022-11-20T06:51:15;99472.84;;;0.07;100.00
35519;BME280;21627;48.216;16.482;2022-11-20T06:53:42;99485.53;;;0.05;100.00
35519;BME280;21627;48.216;16.482;2022-11-20T06:56:10;99500.34;;;0.17;100.00
35519;BME280;21627;48.216;16.482;2022-11-20T06:58:37;99501.19;;;0.16;100.00
35519;BME280;21627;48.216;16.482;2022-11-20T07:01:14;99491.50;;;0.07;100.00
35519;BME280;21627;48.216;16.482;2022-11-20T07:03:42;99501.97;;;0.15;100.00
35519;BME280;21627;48.216;16.482;2022-11-20T07:06:09;99507.97;;;0.17;100.00
35519;BME280;21627;48.216;16.482;2022-11-20T07:08:36;99512.28;;;0.18;100.00
35519;BME280;21627;48.216;16.482;2022-11-20T07:11:06;99514.09;;;0.22;100.00
35519;BME280;21627;48.216;16.482;2022-11-20T07:13:33;99502.09;;;0.18;100.00
35519;BME280;21627;48.216;16.482;2022-11-20T07:16:07;99503.81;;;0.19;100.00
35519;BME280;21627;48.216;16.482;2022-11-20T07:18:35;99514.22;;;0.25;100.00
35519;BME280;21627;48.216;16.482;2022-11-20T07:21:08;99513.53;;;0.29;100.00
35519;BME280;21627;48.216;16.482;2022-11-20T07:23:36;99502.25;;;0.22;100.00
35519;BME280;21627;48.216;16.482;2022-11-20T07:26:09;99505.78;;;0.26;100.00
35519;BME280;21627;48.216;16.482;2022-11-20T07:28:37;99518.84;;;0.35;100.00
35519;BME280;21627;48.216;16.482;2022-11-20T07:31:05;99509.19;;;0.27;100.00
35519;BME280;21627;48.216;16.482;2022-11-20T07:33:33;99507.50;;;0.27;100.00
35519;BME280;21627;48.216;16.482;2022-11-20T07:36:01;99505.13;;;0.32;100.00
35519;BME280;21627;48.216;16.482;2022-11-20T07:38:29;99505.31;;;0.36;100.00
35519;BME280;21627;48.216;16.482;2022-11-20T07:41:06;99528.56;;;0.46;100.00
35519;BME280;21627;48.216;16.482;2022-11-20T07:43:33;99515.56;;;0.38;100.00
35519;BME280;21627;48.216;16.482;2022-11-20T07:46:09;99516.53;;;0.41;100.00
35519;BME280;21627;48.216;16.482;2022-11-20T07:48:36;99534.59;;;0.49;100.00
35519;BME280;21627;48.216;16.482;2022-11-20T07:51:04;99520.78;;;0.42;100.00
35519;BME280;21627;48.216;16.482;2022-11-20T07:53:31;99525.19;;;0.47;100.00
35519;BME280;21627;48.216;16.482;2022-11-20T07:56:02;99516.69;;;0.46;100.00
35519;BME280;21627;48.216;16.482;2022-11-20T07:58:30;99527.03;;;0.51;100.00
35519;BME280;21627;48.216;16.482;2022-11-20T08:01:07;99541.69;;;0.58;100.00
35519;BME280;21627;48.216;16.482;2022-11-20T08:03:35;99530.63;;;0.56;100.00
35519;BME280;21627;48.216;16.482;2022-11-20T08:06:05;99521.06;;;0.50;100.00
35519;BME280;21627;48.216;16.482;2022-11-20T08:08:35;99525.41;;;0.53;100.00
35519;BME280;21627;48.216;16.482;2022-11-20T08:11:08;99522.00;;;0.52;100.00
35519;BME280;21627;48.216;16.482;2022-11-20T08:13:54;99516.31;;;0.59;100.00
35519;BME280;21627;48.216;16.482;2022-11-20T08:16:44;99509.53;;;0.60;100.00
35519;BME280;21627;48.216;16.482;2022-11-20T08:19:13;99537.88;;;0.69;100.00
35519;BME280;21627;48.216;16.482;2022-11-20T08:21:41;99525.97;;;0.68;100.00
35519;BME280;21627;48.216;16.482;2022-11-20T08:24:09;99532.88;;;0.72;100.00
35519;BME280;21627;48.216;16.482;2022-11-20T08:26:37;99530.44;;;0.75;100.00
35519;BME280;21627;48.216;16.482;2022-11-20T08:29:06;99504.69;;;0.66;100.00
35519;BME280;21627;48.216;16.482;2022-11-20T08:31:33;99535.03;;;0.85;100.00
35519;BME280;21627;48.216;16.482;2022-11-20T08:34:00;99539.34;;;0.86;100.00
35519;BME280;21627;48.216;16.482;2022-11-20T08:36:36;99540.28;;;0.89;100.00
35519;BME280;21627;48.216;16.482;2022-11-20T08:39:03;99536.91;;;0.90;100.00
35519;BME280;21627;48.216;16.482;2022-11-20T08:41:30;99540.28;;;0.89;100.00
35519;BME280;21627;48.216;16.482;2022-11-20T08:44:03;99548.03;;;0.93;100.00
35519;BME280;21627;48.216;16.482;2022-11-20T08:46:41;99527.56;;;0.90;100.00
35519;BME280;21627;48.216;16.482;2022-11-20T08:49:12;99540.53;;;0.96;100.00
35519;BME280;21627;48.216;16.482;2022-11-20T08:51:41;99531.41;;;1.03;100.00
35519;BME280;21627;48.216;16.482;2022-11-20T08:54:09;99528.00;;;1.02;100.00
35519;BME280;21627;48.216;16.482;2022-11-20T08:56:36;99522.25;;;1.08;100.00
35519;BME280;21627;48.216;16.482;2022-11-20T08:59:03;99516.47;;;1.12;100.00
35519;BME280;21627;48.216;16.482;2022-11-20T09:01:50;99537.25;;;1.24;100.00
35519;BME280;21627;48.216;16.482;2022-11-20T09:04:18;99533.88;;;1.25;100.00
35519;BME280;21627;48.216;16.482;2022-11-20T09:06:45;99524.19;;;1.15;100.00
35519;BME280;21627;48.216;16.482;2022-11-20T09:09:12;99530.63;;;1.29;100.00
35519;BME280;21627;48.216;16.482;2022-11-20T09:11:39;99519.41;;;1.24;100.00
35519;BME280;21627;48.216;16.482;2022-11-20T09:14:06;99528.06;;;1.29;100.00
35519;BME280;21627;48.216;16.482;2022-11-20T09:16:33;99530.72;;;1.33;100.00
35519;BME280;21627;48.216;16.482;2022-11-20T09:19:00;99528.19;;;1.33;100.00
35519;BME280;21627;48.216;16.482;2022-11-20T09:21:47;99528.34;;;1.37;100.00
35519;BME280;21627;48.216;16.482;2022-11-20T09:24:15;99506.84;;;1.29;100.00
35519;BME280;21627;48.216;16.482;2022-11-20T09:26:43;99517.03;;;1.29;100.00
35519;BME280;21627;48.216;16.482;2022-11-20T09:29:11;99526.63;;;1.38;100.00
35519;BME280;21627;48.216;16.482;2022-11-20T09:31:38;99514.50;;;1.29;100.00
35519;BME280;21627;48.216;16.482;2022-11-20T09:34:05;99520.69;;;1.37;100.00
35519;BME280;21627;48.216;16.482;2022-11-20T09:36:32;99514.66;;;1.35;100.00
35519;BME280;21627;48.216;16.482;2022-11-20T09:38:59;99522.28;;;1.34;100.00
35519;BME280;21627;48.216;16.482;2022-11-20T09:55:21;99510.56;;;1.39;100.00
35519;BME280;21627;48.216;16.482;2022-11-20T09:57:51;99510.69;;;1.43;100.00
35519;BME280;21627;48.216;16.482;2022-11-20T10:00:19;99507.38;;;1.46;100.00
35519;BME280;21627;48.216;16.482;2022-11-20T10:05:50;99472.34;;;1.39;100.00
35519;BME280;21627;48.216;16.482;2022-11-20T10:08:27;99492.25;;;1.50;100.00
35519;BME280;21627;48.216;16.482;2022-11-20T10:11:56;99491.53;;;1.55;100.00
35519;BME280;21627;48.216;16.482;2022-11-20T10:15:10;99492.56;;;1.61;100.00
35519;BME280;21627;48.216;16.482;2022-11-20T10:18:15;99480.47;;;1.54;100.00
35519;BME280;21627;48.216;16.482;2022-11-20T10:23:34;99498.81;;;1.69;100.00
35519;BME280;21627;48.216;16.482;2022-11-20T10:31:40;99480.38;;;1.78;100.00
35519;BME280;21627;48.216;16.482;2022-11-20T10:37:25;99460.75;;;1.76;100.00
35519;BME280;21627;48.216;16.482;2022-11-20T10:42:43;99482.38;;;1.88;100.00
35519;BME280;21627;48.216;16.482;2022-11-20T10:48:31;99481.06;;;2.01;100.00
35519;BME280;21627;48.216;16.482;2022-11-20T10:56:48;99472.06;;;2.14;100.00
35519;BME280;21627;48.216;16.482;2022-11-20T11:07:44;99449.81;;;2.37;100.00
35519;BME280;21627;48.216;16.482;2022-11-20T11:10:55;99454.41;;;2.50;100.00
35519;BME280;21627;48.216;16.482;2022-11-20T11:13:29;99452.19;;;2.63;100.00
35519;BME280;21627;48.216;16.482;2022-11-20T11:15:58;99451.22;;;2.57;100.00
35519;BME280;21627;48.216;16.482;2022-11-20T11:18:32;99444.84;;;2.43;100.00
35519;BME280;21627;48.216;16.482;2022-11-20T11:21:04;99426.78;;;2.35;100.00
35519;BME280;21627;48.216;16.482;2022-11-20T11:26:06;99455.97;;;2.45;100.00
35519;BME280;21627;48.216;16.482;2022-11-20T11:28:33;99452.84;;;2.55;100.00
35519;BME280;21627;48.216;16.482;2022-11-20T11:31:01;99449.78;;;2.67;100.00
35519;BME280;21627;48.216;16.482;2022-11-20T11:33:31;99450.56;;;2.66;100.00
35519;BME280;21627;48.216;16.482;2022-11-20T11:36:03;99446.44;;;2.70;100.00
35519;BME280;21627;48.216;16.482;2022-11-20T11:38:39;99444.88;;;2.76;100.00
35519;BME280;21627;48.216;16.482;2022-11-20T11:41:15;99437.22;;;2.75;100.00
35519;BME280;21627;48.216;16.482;2022-11-20T11:43:55;99439.84;;;2.78;100.00
35519;BME280;21627;48.216;16.482;2022-11-20T11:46:53;99439.72;;;2.73;100.00
35519;BME280;21627;48.216;16.482;2022-11-20T11:49:23;99438.25;;;2.83;100.00
35519;BME280;21627;48.216;16.482;2022-11-20T11:52:08;99427.94;;;2.78;100.00
35519;BME280;21627;48.216;16.482;2022-11-20T11:54:52;99438.41;;;2.89;100.00
35519;BME280;21627;48.216;16.482;2022-11-20T11:57:41;99418.84;;;2.90;100.00
35519;BME280;21627;48.216;16.482;2022-11-20T12:00:20;99431.09;;;3.03;100.00
35519;BME280;21627;48.216;16.482;2022-11-20T12:03:03;99417.06;;;3.20;100.00
35519;BME280;21627;48.216;16.482;2022-11-20T12:05:49;99412.41;;;3.40;100.00
35519;BME280;21627;48.216;16.482;2022-11-20T12:08:29;99391.66;;;3.64;100.00
35519;BME280;21627;48.216;16.482;2022-11-20T12:14:33;99398.13;;;4.30;100.00
35519;BME280;21627;48.216;16.482;2022-11-20T12:17:02;99413.41;;;4.71;100.00
35519;BME280;21627;48.216;16.482;2022-11-20T12:19:34;99406.19;;;4.99;100.00
35519;BME280;21627;48.216;16.482;2022-11-20T12:23:04;99410.03;;;5.26;100.00
35519;BME280;21627;48.216;16.482;2022-11-20T12:25:24;99398.31;;;5.41;99.86
35519;BME280;21627;48.216;16.482;2022-11-20T12:28:47;99408.22;;;5.76;99.51
35519;BME280;21627;48.216;16.482;2022-11-20T12:31:45;99406.88;;;6.00;99.48
35519;BME280;21627;48.216;16.482;2022-11-20T12:54:29;99388.34;;;7.15;89.81
35519;BME280;21627;48.216;16.482;2022-11-20T12:57:56;99383.28;;;7.25;86.70
35519;BME280;21627;48.216;16.482;2022-11-20T13:00:25;99379.97;;;7.43;86.73
35519;BME280;21627;48.216;16.482;2022-11-20T13:06:18;99378.44;;;7.72;87.61
35519;BME280;21627;48.216;16.482;2022-11-20T13:08:55;99393.97;;;7.91;84.05
35519;BME280;21627;48.216;16.482;2022-11-20T13:11:59;99385.47;;;8.07;81.21
35519;BME280;21627;48.216;16.482;2022-11-20T13:17:47;99371.53;;;7.68;86.80
35519;BME280;21627;48.216;16.482;2022-11-20T13:20:19;99374.19;;;7.84;85.29
35519;BME280;21627;48.216;16.482;2022-11-20T13:22:51;99361.31;;;7.79;85.93
35519;BME280;21627;48.216;16.482;2022-11-20T13:25:35;99372.34;;;7.56;84.10
35519;BME280;21627;48.216;16.482;2022-11-20T13:28:29;99373.91;;;7.34;85.31
35519;BME280;21627;48.216;16.482;2022-11-20T13:30:58;99372.06;;;7.18;87.64
35519;BME280;21627;48.216;16.482;2022-11-20T13:33:35;99373.63;;;6.98;88.87
35519;BME280;21627;48.216;16.482;2022-11-20T13:36:06;99370.09;;;6.85;90.17
35519;BME280;21627;48.216;16.482;2022-11-20T13:38:49;99358.78;;;6.64;91.05
35519;BME280;21627;48.216;16.482;2022-11-20T13:41:32;99357.81;;;6.55;90.86
35519;BME280;21627;48.216;16.482;2022-11-20T13:44:27;99365.44;;;6.44;95.03
35519;BME280;21627;48.216;16.482;2022-11-20T13:46:56;99361.09;;;6.38;95.25
35519;BME280;21627;48.216;16.482;2022-11-20T13:49:32;99361.06;;;6.35;94.04
35519;BME280;21627;48.216;16.482;2022-11-20T13:55:42;99364.28;;;6.16;93.57
35519;BME280;21627;48.216;16.482;2022-11-20T14:01:43;99353.88;;;6.05;95.22
35519;BME280;21627;48.216;16.482;2022-11-20T14:04:25;99345.22;;;5.95;95.16
35519;BME280;21627;48.216;16.482;2022-11-20T14:06:54;99344.44;;;6.02;94.83
35519;BME280;21627;48.216;16.482;2022-11-20T14:09:30;99341.00;;;6.00;94.93
35519;BME280;21627;48.216;16.482;2022-11-20T14:11:58;99330.56;;;5.88;95.58
35519;BME280;21627;48.216;16.482;2022-11-20T14:14:30;99345.19;;;5.94;96.34
35519;BME280;21627;48.216;16.482;2022-11-20T14:17:19;99328.00;;;5.91;97.24
35519;BME280;21627;48.216;16.482;2022-11-20T14:19:50;99329.66;;;5.86;98.55
35519;BME280;21627;48.216;16.482;2022-11-20T14:22:23;99337.31;;;5.80;99.38
35519;BME280;21627;48.216;16.482;2022-11-20T14:27:55;99314.03;;;5.64;100.00
35519;BME280;21627;48.216;16.482;2022-11-20T14:30:43;99332.91;;;5.71;100.00
35519;BME280;21627;48.216;16.482;2022-11-20T14:33:13;99319.97;;;5.62;100.00
35519;BME280;21627;48.216;16.482;2022-11-20T14:35:51;99333.66;;;5.64;100.00
35519;BME280;21627;48.216;16.482;2022-11-20T14:38:29;99337.91;;;5.60;100.00
35519;BME280;21627;48.216;16.482;2022-11-20T14:41:16;99322.38;;;5.50;100.00
35519;BME280;21627;48.216;16.482;2022-11-20T14:43:57;99328.34;;;5.50;100.00
35519;BME280;21627;48.216;16.482;2022-11-20T14:46:26;99316.25;;;5.41;100.00
35519;BME280;21627;48.216;16.482;2022-11-20T14:48:57;99322.22;;;5.37;100.00
35519;BME280;21627;48.216;16.482;2022-11-20T14:51:37;99324.78;;;5.39;100.00
35519;BME280;21627;48.216;16.482;2022-11-20T14:54:17;99319.53;;;5.31;100.00
35519;BME280;21627;48.216;16.482;2022-11-20T14:57:01;99313.44;;;5.23;100.00